sensor_id;sensor_type;location;lat;lon;timestamp;P1;durP1;ratioP1;P2;durP2;ratioP2
21326;SDS011;10822;51.532;6.770;2024-03-22T00:01:56;37.85;;;19.50;;
21326;SDS011;10822;51.532;6.770;2024-03-22T00:04:22;33.95;;;18.48;;
21326;SDS011;10822;51.532;6.770;2024-03-22T00:06:49;35.08;;;18.33;;
21326;SDS011;10822;51.532;6.770;2024-03-22T00:09:15;33.55;;;18.33;;
21326;SDS011;10822;51.532;6.770;2024-03-22T00:11:41;36.15;;;19.17;;
21326;SDS011;10822;51.532;6.770;2024-03-22T00:14:08;35.53;;;18.45;;
21326;SDS011;10822;51.532;6.770;2024-03-22T00:16:34;35.72;;;18.25;;
21326;SDS011;10822;51.532;6.770;2024-03-22T00:19:01;32.72;;;18.80;;
21326;SDS011;10822;51.532;6.770;2024-03-22T00:21:27;36.80;;;18.08;;
21326;SDS011;10822;51.532;6.770;2024-03-22T00:23:54;33.38;;;19.17;;
21326;SDS011;10822;51.532;6.770;2024-03-22T00:26:20;32.30;;;18.17;;
21326;SDS011;10822;51.532;6.770;2024-03-22T00:28:46;34.80;;;18.75;;
21326;SDS011;10822;51.532;6.770;2024-03-22T00:31:12;37.83;;;18.95;;
21326;SDS011;10822;51.532;6.770;2024-03-22T00:33:38;30.65;;;17.02;;
21326;SDS011;10822;51.532;6.770;2024-03-22T00:36:04;33.28;;;17.95;;
21326;SDS011;10822;51.532;6.770;2024-03-22T00:38:31;35.03;;;19.55;;
21326;SDS011;10822;51.532;6.770;2024-03-22T00:40:57;32.88;;;18.20;;
21326;SDS011;10822;51.532;6.770;2024-03-22T00:43:23;33.70;;;18.45;;
21326;SDS011;10822;51.532;6.770;2024-03-22T00:45:49;32.33;;;17.65;;
21326;SDS011;10822;51.532;6.770;2024-03-22T00:48:15;35.08;;;18.98;;
21326;SDS011;10822;51.532;6.770;2024-03-22T00:50:41;33.40;;;18.70;;
21326;SDS011;10822;51.532;6.770;2024-03-22T00:53:07;34.25;;;19.20;;
21326;SDS011;10822;51.532;6.770;2024-03-22T00:55:34;36.30;;;18.23;;
21326;SDS011;10822;51.532;6.770;2024-03-22T00:58:00;30.35;;;17.48;;
21326;SDS011;10822;51.532;6.770;2024-03-22T01:00:26;33.55;;;19.20;;
21326;SDS011;10822;51.532;6.770;2024-03-22T01:02:52;35.00;;;18.70;;
21326;SDS011;10822;51.532;6.770;2024-03-22T01:05:18;35.92;;;19.40;;
21326;SDS011;10822;51.532;6.770;2024-03-22T01:07:44;33.25;;;18.63;;
21326;SDS011;10822;51.532;6.770;2024-03-22T01:10:10;37.70;;;19.13;;
21326;SDS011;10822;51.532;6.770;2024-03-22T01:12:37;30.95;;;18.42;;
21326;SDS011;10822;51.532;6.770;2024-03-22T01:15:04;32.47;;;18.90;;
21326;SDS011;10822;51.532;6.770;2024-03-22T01:17:30;36.55;;;19.63;;
21326;SDS011;10822;51.532;6.770;2024-03-22T01:19:56;39.10;;;20.23;;
21326;SDS011;10822;51.532;6.770;2024-03-22T01:22:22;33.13;;;19.17;;
21326;SDS011;10822;51.532;6.770;2024-03-22T01:24:48;35.45;;;19.60;;
21326;SDS011;10822;51.532;6.770;2024-03-22T01:27:14;33.67;;;19.63;;
21326;SDS011;10822;51.532;6.770;2024-03-22T01:29:41;34.00;;;18.67;;
21326;SDS011;10822;51.532;6.770;2024-03-22T01:32:07;39.00;;;19.95;;
21326;SDS011;10822;51.532;6.770;2024-03-22T01:34:33;36.28;;;20.38;;
21326;SDS011;10822;51.532;6.770;2024-03-22T01:37:02;32.55;;;18.60;;
21326;SDS011;10822;51.532;6.770;2024-03-22T01:39:28;35.20;;;19.73;;
21326;SDS011;10822;51.532;6.770;2024-03-22T01:41:55;34.85;;;18.80;;
21326;SDS011;10822;51.532;6.770;2024-03-22T01:44:26;33.78;;;18.50;;
21326;SDS011;10822;51.532;6.770;2024-03-22T01:46:53;36.75;;;21.17;;
21326;SDS011;10822;51.532;6.770;2024-03-22T01:49:19;34.70;;;18.83;;
21326;SDS011;10822;51.532;6.770;2024-03-22T01:51:45;43.60;;;20.05;;
21326;SDS011;10822;51.532;6.770;2024-03-22T01:54:11;39.83;;;20.58;;
21326;SDS011;10822;51.532;6.770;2024-03-22T01:56:38;36.47;;;19.70;;
21326;SDS011;10822;51.532;6.770;2024-03-22T01:59:04;37.72;;;19.95;;
21326;SDS011;10822;51.532;6.770;2024-03-22T02:01:31;33.42;;;19.08;;
21326;SDS011;10822;51.532;6.770;2024-03-22T02:03:57;34.83;;;19.92;;
21326;SDS011;10822;51.532;6.770;2024-03-22T02:06:23;39.35;;;19.80;;
21326;SDS011;10822;51.532;6.770;2024-03-22T02:08:49;36.92;;;19.10;;
21326;SDS011;10822;51.532;6.770;2024-03-22T02:11:15;36.50;;;18.80;;
21326;SDS011;10822;51.532;6.770;2024-03-22T02:13:42;36.95;;;19.33;;
21326;SDS011;10822;51.532;6.770;2024-03-22T02:16:08;35.33;;;20.45;;
21326;SDS011;10822;51.532;6.770;2024-03-22T02:21:38;35.83;;;19.90;;
21326;SDS011;10822;51.532;6.770;2024-03-22T02:24:04;40.25;;;20.25;;
21326;SDS011;10822;51.532;6.770;2024-03-22T02:26:30;40.20;;;20.35;;
21326;SDS011;10822;51.532;6.770;2024-03-22T02:28:56;35.90;;;19.50;;
21326;SDS011;10822;51.532;6.770;2024-03-22T02:31:23;35.95;;;19.67;;
21326;SDS011;10822;51.532;6.770;2024-03-22T02:33:50;38.63;;;20.80;;
21326;SDS011;10822;51.532;6.770;2024-03-22T02:36:22;39.60;;;21.83;;
21326;SDS011;10822;51.532;6.770;2024-03-22T02:38:48;36.78;;;21.10;;
21326;SDS011;10822;51.532;6.770;2024-03-22T02:41:14;43.00;;;21.52;;
21326;SDS011;10822;51.532;6.770;2024-03-22T02:43:53;40.13;;;19.92;;
21326;SDS011;10822;51.532;6.770;2024-03-22T02:46:19;42.55;;;20.38;;
21326;SDS011;10822;51.532;6.770;2024-03-22T02:48:45;39.53;;;20.50;;
21326;SDS011;10822;51.532;6.770;2024-03-22T02:51:11;40.42;;;20.50;;
21326;SDS011;10822;51.532;6.770;2024-03-22T02:53:38;39.75;;;21.73;;
21326;SDS011;10822;51.532;6.770;2024-03-22T02:56:04;39.65;;;20.80;;
21326;SDS011;10822;51.532;6.770;2024-03-22T02:58:30;43.10;;;21.08;;
21326;SDS011;10822;51.532;6.770;2024-03-22T03:00:56;39.60;;;21.10;;
21326;SDS011;10822;51.532;6.770;2024-03-22T03:03:22;38.10;;;19.77;;
21326;SDS011;10822;51.532;6.770;2024-03-22T03:05:48;39.05;;;19.73;;
21326;SDS011;10822;51.532;6.770;2024-03-22T03:08:14;37.85;;;20.65;;
21326;SDS011;10822;51.532;6.770;2024-03-22T03:10:40;36.63;;;19.30;;
21326;SDS011;10822;51.532;6.770;2024-03-22T03:13:06;37.97;;;21.15;;
21326;SDS011;10822;51.532;6.770;2024-03-22T03:15:32;40.70;;;20.00;;
21326;SDS011;10822;51.532;6.770;2024-03-22T03:17:58;42.13;;;20.40;;
21326;SDS011;10822;51.532;6.770;2024-03-22T03:20:25;39.15;;;20.60;;
21326;SDS011;10822;51.532;6.770;2024-03-22T03:22:51;43.65;;;22.98;;
21326;SDS011;10822;51.532;6.770;2024-03-22T03:25:18;36.05;;;20.27;;
21326;SDS011;10822;51.532;6.770;2024-03-22T03:27:44;37.28;;;19.27;;
21326;SDS011;10822;51.532;6.770;2024-03-22T03:30:10;38.70;;;21.65;;
21326;SDS011;10822;51.532;6.770;2024-03-22T03:32:36;41.75;;;21.95;;
21326;SDS011;10822;51.532;6.770;2024-03-22T03:35:02;44.00;;;22.48;;
21326;SDS011;10822;51.532;6.770;2024-03-22T03:37:30;39.47;;;21.55;;
21326;SDS011;10822;51.532;6.770;2024-03-22T03:39:56;42.95;;;22.35;;
21326;SDS011;10822;51.532;6.770;2024-03-22T03:42:22;40.63;;;21.27;;
21326;SDS011;10822;51.532;6.770;2024-03-22T03:44:49;41.40;;;22.02;;
21326;SDS011;10822;51.532;6.770;2024-03-22T03:47:15;43.67;;;21.70;;
21326;SDS011;10822;51.532;6.770;2024-03-22T03:49:41;40.25;;;21.90;;
21326;SDS011;10822;51.532;6.770;2024-03-22T03:52:07;41.83;;;22.83;;
21326;SDS011;10822;51.532;6.770;2024-03-22T03:54:33;40.90;;;21.25;;
21326;SDS011;10822;51.532;6.770;2024-03-22T03:56:59;44.22;;;21.90;;
21326;SDS011;10822;51.532;6.770;2024-03-22T03:59:25;40.38;;;21.67;;
21326;SDS011;10822;51.532;6.770;2024-03-22T04:01:51;40.20;;;21.15;;
21326;SDS011;10822;51.532;6.770;2024-03-22T04:04:18;39.72;;;21.13;;
21326;SDS011;10822;51.532;6.770;2024-03-22T04:06:44;41.03;;;20.90;;
21326;SDS011;10822;51.532;6.770;2024-03-22T04:09:10;38.63;;;20.92;;
21326;SDS011;10822;51.532;6.770;2024-03-22T04:11:39;39.53;;;20.90;;
21326;SDS011;10822;51.532;6.770;2024-03-22T04:14:05;38.25;;;20.30;;
21326;SDS011;10822;51.532;6.770;2024-03-22T04:16:31;38.60;;;20.02;;
21326;SDS011;10822;51.532;6.770;2024-03-22T04:18:58;39.28;;;21.13;;
21326;SDS011;10822;51.532;6.770;2024-03-22T04:21:24;38.95;;;20.65;;
21326;SDS011;10822;51.532;6.770;2024-03-22T04:23:50;40.42;;;19.85;;
21326;SDS011;10822;51.532;6.770;2024-03-22T04:26:16;38.08;;;20.65;;
21326;SDS011;10822;51.532;6.770;2024-03-22T04:28:42;38.60;;;21.33;;
21326;SDS011;10822;51.532;6.770;2024-03-22T04:31:08;36.88;;;21.08;;
21326;SDS011;10822;51.532;6.770;2024-03-22T04:33:35;42.70;;;21.02;;
21326;SDS011;10822;51.532;6.770;2024-03-22T04:36:01;36.60;;;21.63;;
21326;SDS011;10822;51.532;6.770;2024-03-22T04:38:27;39.25;;;21.50;;
21326;SDS011;10822;51.532;6.770;2024-03-22T04:40:54;39.58;;;20.88;;
21326;SDS011;10822;51.532;6.770;2024-03-22T04:43:21;38.85;;;20.40;;
21326;SDS011;10822;51.532;6.770;2024-03-22T04:45:47;36.92;;;20.88;;
21326;SDS011;10822;51.532;6.770;2024-03-22T04:48:14;40.42;;;20.40;;
21326;SDS011;10822;51.532;6.770;2024-03-22T04:50:40;35.88;;;20.27;;
21326;SDS011;10822;51.532;6.770;2024-03-22T04:53:06;38.03;;;19.98;;
21326;SDS011;10822;51.532;6.770;2024-03-22T04:55:32;36.42;;;19.90;;
21326;SDS011;10822;51.532;6.770;2024-03-22T04:57:58;38.00;;;20.25;;
21326;SDS011;10822;51.532;6.770;2024-03-22T05:00:25;33.78;;;19.08;;
21326;SDS011;10822;51.532;6.770;2024-03-22T05:02:51;37.22;;;20.27;;
21326;SDS011;10822;51.532;6.770;2024-03-22T05:05:17;35.90;;;19.42;;
21326;SDS011;10822;51.532;6.770;2024-03-22T05:07:43;39.13;;;20.38;;
21326;SDS011;10822;51.532;6.770;2024-03-22T05:10:10;36.75;;;21.20;;
21326;SDS011;10822;51.532;6.770;2024-03-22T05:12:36;36.78;;;20.70;;
21326;SDS011;10822;51.532;6.770;2024-03-22T05:15:02;33.28;;;19.02;;
21326;SDS011;10822;51.532;6.770;2024-03-22T05:17:28;37.60;;;20.75;;
21326;SDS011;10822;51.532;6.770;2024-03-22T05:19:57;33.97;;;19.90;;
21326;SDS011;10822;51.532;6.770;2024-03-22T05:22:23;36.47;;;19.75;;
21326;SDS011;10822;51.532;6.770;2024-03-22T05:24:48;34.20;;;18.98;;
21326;SDS011;10822;51.532;6.770;2024-03-22T05:27:14;34.80;;;20.30;;
21326;SDS011;10822;51.532;6.770;2024-03-22T05:29:40;34.83;;;19.67;;
21326;SDS011;10822;51.532;6.770;2024-03-22T05:32:06;31.98;;;19.58;;
21326;SDS011;10822;51.532;6.770;2024-03-22T05:34:32;32.20;;;18.42;;
21326;SDS011;10822;51.532;6.770;2024-03-22T05:36:58;31.98;;;19.02;;
21326;SDS011;10822;51.532;6.770;2024-03-22T05:39:24;35.00;;;19.02;;
21326;SDS011;10822;51.532;6.770;2024-03-22T05:41:50;30.70;;;18.70;;
21326;SDS011;10822;51.532;6.770;2024-03-22T05:44:16;34.40;;;18.85;;
21326;SDS011;10822;51.532;6.770;2024-03-22T05:46:43;34.53;;;18.52;;
21326;SDS011;10822;51.532;6.770;2024-03-22T05:49:09;31.80;;;18.02;;
21326;SDS011;10822;51.532;6.770;2024-03-22T05:51:36;35.22;;;19.10;;
21326;SDS011;10822;51.532;6.770;2024-03-22T05:54:02;32.20;;;19.10;;
21326;SDS011;10822;51.532;6.770;2024-03-22T05:56:28;31.65;;;18.95;;
21326;SDS011;10822;51.532;6.770;2024-03-22T05:58:54;35.72;;;18.85;;
21326;SDS011;10822;51.532;6.770;2024-03-22T06:01:20;30.98;;;17.58;;
21326;SDS011;10822;51.532;6.770;2024-03-22T06:03:46;37.13;;;18.23;;
21326;SDS011;10822;51.532;6.770;2024-03-22T06:06:12;34.50;;;17.67;;
21326;SDS011;10822;51.532;6.770;2024-03-22T06:08:38;33.85;;;17.25;;
21326;SDS011;10822;51.532;6.770;2024-03-22T06:11:08;32.63;;;17.92;;
21326;SDS011;10822;51.532;6.770;2024-03-22T06:13:34;32.58;;;16.88;;
21326;SDS011;10822;51.532;6.770;2024-03-22T06:16:01;30.13;;;17.10;;
21326;SDS011;10822;51.532;6.770;2024-03-22T06:18:28;31.90;;;17.15;;
21326;SDS011;10822;51.532;6.770;2024-03-22T06:20:54;29.85;;;16.90;;
21326;SDS011;10822;51.532;6.770;2024-03-22T06:23:20;27.15;;;16.05;;
21326;SDS011;10822;51.532;6.770;2024-03-22T06:25:53;28.67;;;15.95;;
21326;SDS011;10822;51.532;6.770;2024-03-22T06:28:19;29.05;;;17.25;;
21326;SDS011;10822;51.532;6.770;2024-03-22T06:30:45;29.33;;;16.70;;
21326;SDS011;10822;51.532;6.770;2024-03-22T06:33:11;24.00;;;14.77;;
21326;SDS011;10822;51.532;6.770;2024-03-22T06:35:37;26.00;;;15.43;;
21326;SDS011;10822;51.532;6.770;2024-03-22T06:38:04;28.08;;;16.75;;
21326;SDS011;10822;51.532;6.770;2024-03-22T06:40:30;28.05;;;16.50;;
21326;SDS011;10822;51.532;6.770;2024-03-22T06:42:56;29.63;;;16.40;;
21326;SDS011;10822;51.532;6.770;2024-03-22T06:45:22;26.20;;;15.55;;
21326;SDS011;10822;51.532;6.770;2024-03-22T06:47:48;25.33;;;16.25;;
21326;SDS011;10822;51.532;6.770;2024-03-22T06:50:14;27.00;;;16.42;;
21326;SDS011;10822;51.532;6.770;2024-03-22T06:52:42;30.75;;;16.30;;
21326;SDS011;10822;51.532;6.770;2024-03-22T06:55:09;23.92;;;14.90;;
21326;SDS011;10822;51.532;6.770;2024-03-22T06:57:36;25.52;;;15.90;;
21326;SDS011;10822;51.532;6.770;2024-03-22T07:00:02;26.10;;;15.63;;
21326;SDS011;10822;51.532;6.770;2024-03-22T07:02:28;24.25;;;15.05;;
21326;SDS011;10822;51.532;6.770;2024-03-22T07:04:54;28.38;;;16.17;;
21326;SDS011;10822;51.532;6.770;2024-03-22T07:07:20;26.40;;;14.63;;
21326;SDS011;10822;51.532;6.770;2024-03-22T07:09:46;24.95;;;15.55;;
21326;SDS011;10822;51.532;6.770;2024-03-22T07:12:13;26.02;;;15.32;;
21326;SDS011;10822;51.532;6.770;2024-03-22T07:14:39;24.63;;;15.70;;
21326;SDS011;10822;51.532;6.770;2024-03-22T07:17:05;25.15;;;14.93;;
21326;SDS011;10822;51.532;6.770;2024-03-22T07:19:31;26.23;;;15.80;;
21326;SDS011;10822;51.532;6.770;2024-03-22T07:21:59;23.77;;;14.93;;
21326;SDS011;10822;51.532;6.770;2024-03-22T07:24:25;27.23;;;15.23;;
21326;SDS011;10822;51.532;6.770;2024-03-22T07:26:51;23.80;;;15.07;;
21326;SDS011;10822;51.532;6.770;2024-03-22T07:29:17;26.80;;;15.27;;
21326;SDS011;10822;51.532;6.770;2024-03-22T07:31:44;24.50;;;14.68;;
21326;SDS011;10822;51.532;6.770;2024-03-22T07:34:10;23.73;;;15.07;;
21326;SDS011;10822;51.532;6.770;2024-03-22T07:36:37;20.98;;;14.48;;
21326;SDS011;10822;51.532;6.770;2024-03-22T07:39:03;24.88;;;14.32;;
21326;SDS011;10822;51.532;6.770;2024-03-22T07:41:31;24.33;;;14.60;;
21326;SDS011;10822;51.532;6.770;2024-03-22T07:43:58;21.95;;;13.65;;
21326;SDS011;10822;51.532;6.770;2024-03-22T07:46:25;23.33;;;14.10;;
21326;SDS011;10822;51.532;6.770;2024-03-22T07:48:51;21.67;;;13.48;;
21326;SDS011;10822;51.532;6.770;2024-03-22T07:51:18;21.75;;;13.18;;
21326;SDS011;10822;51.532;6.770;2024-03-22T07:53:44;22.13;;;11.70;;
21326;SDS011;10822;51.532;6.770;2024-03-22T07:56:11;18.05;;;12.77;;
21326;SDS011;10822;51.532;6.770;2024-03-22T07:58:38;21.48;;;12.55;;
21326;SDS011;10822;51.532;6.770;2024-03-22T08:01:04;23.42;;;12.73;;
21326;SDS011;10822;51.532;6.770;2024-03-22T08:03:30;21.02;;;12.77;;
21326;SDS011;10822;51.532;6.770;2024-03-22T08:05:56;21.67;;;12.98;;
21326;SDS011;10822;51.532;6.770;2024-03-22T08:08:22;20.13;;;12.05;;
21326;SDS011;10822;51.532;6.770;2024-03-22T08:10:48;19.77;;;11.82;;
21326;SDS011;10822;51.532;6.770;2024-03-22T08:13:14;19.52;;;12.00;;
21326;SDS011;10822;51.532;6.770;2024-03-22T08:15:40;19.05;;;12.18;;
21326;SDS011;10822;51.532;6.770;2024-03-22T08:18:08;18.10;;;11.40;;
21326;SDS011;10822;51.532;6.770;2024-03-22T08:20:35;16.48;;;11.05;;
21326;SDS011;10822;51.532;6.770;2024-03-22T08:23:02;17.38;;;11.52;;
21326;SDS011;10822;51.532;6.770;2024-03-22T08:25:28;20.98;;;12.07;;
21326;SDS011;10822;51.532;6.770;2024-03-22T08:27:55;17.58;;;11.65;;
21326;SDS011;10822;51.532;6.770;2024-03-22T08:30:21;19.77;;;11.07;;
21326;SDS011;10822;51.532;6.770;2024-03-22T08:32:47;18.10;;;11.23;;
21326;SDS011;10822;51.532;6.770;2024-03-22T08:35:14;18.05;;;10.75;;
21326;SDS011;10822;51.532;6.770;2024-03-22T08:37:40;18.63;;;11.23;;
21326;SDS011;10822;51.532;6.770;2024-03-22T08:40:06;18.95;;;11.73;;
21326;SDS011;10822;51.532;6.770;2024-03-22T08:42:33;18.90;;;11.15;;
21326;SDS011;10822;51.532;6.770;2024-03-22T08:44:59;18.33;;;11.63;;
21326;SDS011;10822;51.532;6.770;2024-03-22T08:47:25;22.08;;;10.65;;
21326;SDS011;10822;51.532;6.770;2024-03-22T08:49:51;19.85;;;11.43;;
21326;SDS011;10822;51.532;6.770;2024-03-22T08:52:17;20.17;;;11.40;;
21326;SDS011;10822;51.532;6.770;2024-03-22T08:54:43;17.83;;;10.88;;
21326;SDS011;10822;51.532;6.770;2024-03-22T08:57:09;22.63;;;10.82;;
21326;SDS011;10822;51.532;6.770;2024-03-22T08:59:35;19.10;;;11.48;;
21326;SDS011;10822;51.532;6.770;2024-03-22T09:02:03;17.73;;;11.00;;
21326;SDS011;10822;51.532;6.770;2024-03-22T09:04:29;17.95;;;10.30;;
21326;SDS011;10822;51.532;6.770;2024-03-22T09:06:55;17.67;;;11.00;;
21326;SDS011;10822;51.532;6.770;2024-03-22T09:09:21;16.80;;;10.32;;
21326;SDS011;10822;51.532;6.770;2024-03-22T09:11:47;17.20;;;10.75;;
21326;SDS011;10822;51.532;6.770;2024-03-22T09:14:13;17.38;;;10.52;;
21326;SDS011;10822;51.532;6.770;2024-03-22T09:16:39;14.20;;;9.85;;
21326;SDS011;10822;51.532;6.770;2024-03-22T09:19:05;18.70;;;10.05;;
21326;SDS011;10822;51.532;6.770;2024-03-22T09:21:31;15.27;;;10.43;;
21326;SDS011;10822;51.532;6.770;2024-03-22T09:23:57;16.90;;;10.48;;
21326;SDS011;10822;51.532;6.770;2024-03-22T09:26:23;15.48;;;10.13;;
21326;SDS011;10822;51.532;6.770;2024-03-22T09:28:49;18.38;;;10.32;;
21326;SDS011;10822;51.532;6.770;2024-03-22T09:31:15;18.33;;;10.38;;
21326;SDS011;10822;51.532;6.770;2024-03-22T09:33:42;17.10;;;9.40;;
21326;SDS011;10822;51.532;6.770;2024-03-22T09:36:08;13.80;;;9.55;;
21326;SDS011;10822;51.532;6.770;2024-03-22T09:38:34;17.00;;;9.95;;
21326;SDS011;10822;51.532;6.770;2024-03-22T09:41:00;16.65;;;10.10;;
21326;SDS011;10822;51.532;6.770;2024-03-22T09:43:27;14.70;;;9.10;;
21326;SDS011;10822;51.532;6.770;2024-03-22T09:45:54;17.38;;;8.93;;
21326;SDS011;10822;51.532;6.770;2024-03-22T09:48:21;14.07;;;9.02;;
21326;SDS011;10822;51.532;6.770;2024-03-22T09:50:48;16.42;;;9.30;;
21326;SDS011;10822;51.532;6.770;2024-03-22T09:53:20;17.02;;;9.75;;
21326;SDS011;10822;51.532;6.770;2024-03-22T09:55:50;14.95;;;9.60;;
21326;SDS011;10822;51.532;6.770;2024-03-22T09:58:17;16.10;;;9.38;;
21326;SDS011;10822;51.532;6.770;2024-03-22T10:00:44;14.40;;;9.25;;
21326;SDS011;10822;51.532;6.770;2024-03-22T10:03:10;17.55;;;9.18;;
21326;SDS011;10822;51.532;6.770;2024-03-22T10:05:36;13.88;;;9.00;;
21326;SDS011;10822;51.532;6.770;2024-03-22T10:08:05;16.30;;;9.55;;
21326;SDS011;10822;51.532;6.770;2024-03-22T10:10:32;13.65;;;8.25;;
21326;SDS011;10822;51.532;6.770;2024-03-22T10:13:00;12.60;;;8.20;;
21326;SDS011;10822;51.532;6.770;2024-03-22T10:15:26;14.07;;;8.88;;
21326;SDS011;10822;51.532;6.770;2024-03-22T10:17:52;14.65;;;8.88;;
21326;SDS011;10822;51.532;6.770;2024-03-22T10:20:21;14.68;;;8.65;;
21326;SDS011;10822;51.532;6.770;2024-03-22T10:22:57;14.02;;;8.75;;
21326;SDS011;10822;51.532;6.770;2024-03-22T10:25:24;14.00;;;8.77;;
21326;SDS011;10822;51.532;6.770;2024-03-22T10:27:50;13.82;;;9.43;;
21326;SDS011;10822;51.532;6.770;2024-03-22T10:30:16;15.38;;;9.48;;
21326;SDS011;10822;51.532;6.770;2024-03-22T10:32:43;15.55;;;8.98;;
21326;SDS011;10822;51.532;6.770;2024-03-22T10:35:13;13.50;;;8.30;;
21326;SDS011;10822;51.532;6.770;2024-03-22T10:37:39;13.50;;;8.73;;
21326;SDS011;10822;51.532;6.770;2024-03-22T10:40:07;16.15;;;9.55;;
21326;SDS011;10822;51.532;6.770;2024-03-22T10:42:36;19.17;;;10.07;;
21326;SDS011;10822;51.532;6.770;2024-03-22T10:45:03;16.15;;;8.88;;
21326;SDS011;10822;51.532;6.770;2024-03-22T10:47:31;15.02;;;9.07;;
21326;SDS011;10822;51.532;6.770;2024-03-22T10:50:04;15.07;;;9.23;;
21326;SDS011;10822;51.532;6.770;2024-03-22T10:52:36;14.95;;;8.45;;
21326;SDS011;10822;51.532;6.770;2024-03-22T10:55:04;15.80;;;9.35;;
21326;SDS011;10822;51.532;6.770;2024-03-22T10:57:31;13.98;;;8.77;;
21326;SDS011;10822;51.532;6.770;2024-03-22T11:00:01;14.68;;;8.80;;
21326;SDS011;10822;51.532;6.770;2024-03-22T11:02:28;14.63;;;9.60;;
21326;SDS011;10822;51.532;6.770;2024-03-22T11:04:57;12.68;;;9.05;;
21326;SDS011;10822;51.532;6.770;2024-03-22T11:07:28;12.05;;;8.77;;
21326;SDS011;10822;51.532;6.770;2024-03-22T11:09:57;14.38;;;9.80;;
21326;SDS011;10822;51.532;6.770;2024-03-22T11:12:24;15.32;;;9.63;;
21326;SDS011;10822;51.532;6.770;2024-03-22T11:14:51;13.80;;;9.57;;
21326;SDS011;10822;51.532;6.770;2024-03-22T11:17:17;16.38;;;9.65;;
21326;SDS011;10822;51.532;6.770;2024-03-22T11:19:43;16.58;;;10.30;;
21326;SDS011;10822;51.532;6.770;2024-03-22T11:22:09;22.00;;;10.95;;
21326;SDS011;10822;51.532;6.770;2024-03-22T11:24:40;15.98;;;10.10;;
21326;SDS011;10822;51.532;6.770;2024-03-22T11:27:06;24.40;;;12.55;;
21326;SDS011;10822;51.532;6.770;2024-03-22T11:29:32;16.92;;;9.75;;
21326;SDS011;10822;51.532;6.770;2024-03-22T11:31:59;14.23;;;9.48;;
21326;SDS011;10822;51.532;6.770;2024-03-22T11:34:25;13.32;;;9.95;;
21326;SDS011;10822;51.532;6.770;2024-03-22T11:36:53;16.95;;;10.75;;
21326;SDS011;10822;51.532;6.770;2024-03-22T11:39:20;16.20;;;10.63;;
21326;SDS011;10822;51.532;6.770;2024-03-22T11:42:06;15.82;;;10.15;;
21326;SDS011;10822;51.532;6.770;2024-03-22T11:44:32;16.23;;;10.93;;
21326;SDS011;10822;51.532;6.770;2024-03-22T11:46:59;16.40;;;11.02;;
21326;SDS011;10822;51.532;6.770;2024-03-22T11:49:25;17.38;;;10.55;;
21326;SDS011;10822;51.532;6.770;2024-03-22T11:51:52;13.32;;;9.45;;
21326;SDS011;10822;51.532;6.770;2024-03-22T11:54:21;13.73;;;9.82;;
21326;SDS011;10822;51.532;6.770;2024-03-22T11:56:48;15.80;;;10.23;;
21326;SDS011;10822;51.532;6.770;2024-03-22T11:59:15;18.00;;;10.48;;
21326;SDS011;10822;51.532;6.770;2024-03-22T12:01:41;16.48;;;10.63;;
21326;SDS011;10822;51.532;6.770;2024-03-22T12:04:07;14.55;;;9.88;;
21326;SDS011;10822;51.532;6.770;2024-03-22T12:06:36;17.10;;;10.20;;
21326;SDS011;10822;51.532;6.770;2024-03-22T12:09:02;14.35;;;9.57;;
21326;SDS011;10822;51.532;6.770;2024-03-22T12:11:32;15.40;;;9.25;;
21326;SDS011;10822;51.532;6.770;2024-03-22T12:13:58;12.90;;;9.13;;
21326;SDS011;10822;51.532;6.770;2024-03-22T12:16:24;12.60;;;8.85;;
21326;SDS011;10822;51.532;6.770;2024-03-22T12:18:50;13.43;;;9.27;;
21326;SDS011;10822;51.532;6.770;2024-03-22T12:21:16;13.32;;;9.52;;
21326;SDS011;10822;51.532;6.770;2024-03-22T12:23:42;14.98;;;10.18;;
21326;SDS011;10822;51.532;6.770;2024-03-22T12:26:08;14.88;;;10.57;;
21326;SDS011;10822;51.532;6.770;2024-03-22T12:28:34;16.98;;;10.30;;
21326;SDS011;10822;51.532;6.770;2024-03-22T12:31:01;13.85;;;10.25;;
21326;SDS011;10822;51.532;6.770;2024-03-22T12:33:27;13.23;;;9.98;;
21326;SDS011;10822;51.532;6.770;2024-03-22T12:35:53;15.52;;;9.93;;
21326;SDS011;10822;51.532;6.770;2024-03-22T12:38:19;14.32;;;9.75;;
21326;SDS011;10822;51.532;6.770;2024-03-22T12:40:46;14.75;;;9.93;;
21326;SDS011;10822;51.532;6.770;2024-03-22T12:43:12;13.93;;;9.45;;
21326;SDS011;10822;51.532;6.770;2024-03-22T12:45:38;13.77;;;8.88;;
21326;SDS011;10822;51.532;6.770;2024-03-22T12:48:04;12.18;;;8.55;;
21326;SDS011;10822;51.532;6.770;2024-03-22T12:50:30;11.65;;;8.48;;
21326;SDS011;10822;51.532;6.770;2024-03-22T12:52:57;11.98;;;8.77;;
21326;SDS011;10822;51.532;6.770;2024-03-22T12:55:23;13.55;;;8.98;;
21326;SDS011;10822;51.532;6.770;2024-03-22T12:57:50;11.80;;;8.48;;
21326;SDS011;10822;51.532;6.770;2024-03-22T13:00:16;12.02;;;9.07;;
21326;SDS011;10822;51.532;6.770;2024-03-22T13:02:45;14.80;;;9.27;;
21326;SDS011;10822;51.532;6.770;2024-03-22T13:05:12;14.32;;;9.13;;
21326;SDS011;10822;51.532;6.770;2024-03-22T13:07:38;13.55;;;9.18;;
21326;SDS011;10822;51.532;6.770;2024-03-22T13:10:04;13.77;;;9.60;;
21326;SDS011;10822;51.532;6.770;2024-03-22T13:12:30;13.40;;;9.48;;
21326;SDS011;10822;51.532;6.770;2024-03-22T13:14:59;14.10;;;10.02;;
21326;SDS011;10822;51.532;6.770;2024-03-22T13:17:25;14.25;;;9.40;;
21326;SDS011;10822;51.532;6.770;2024-03-22T13:19:51;12.73;;;9.55;;
21326;SDS011;10822;51.532;6.770;2024-03-22T13:22:17;16.23;;;10.38;;
21326;SDS011;10822;51.532;6.770;2024-03-22T13:24:44;22.17;;;14.00;;
21326;SDS011;10822;51.532;6.770;2024-03-22T13:27:10;23.85;;;13.98;;
21326;SDS011;10822;51.532;6.770;2024-03-22T13:29:38;13.23;;;9.38;;
21326;SDS011;10822;51.532;6.770;2024-03-22T13:32:04;16.33;;;10.57;;
21326;SDS011;10822;51.532;6.770;2024-03-22T13:34:32;18.50;;;11.88;;
21326;SDS011;10822;51.532;6.770;2024-03-22T13:36:58;16.73;;;11.23;;
21326;SDS011;10822;51.532;6.770;2024-03-22T13:39:24;14.40;;;10.15;;
21326;SDS011;10822;51.532;6.770;2024-03-22T13:41:50;17.45;;;11.68;;
21326;SDS011;10822;51.532;6.770;2024-03-22T13:44:17;16.98;;;11.43;;
21326;SDS011;10822;51.532;6.770;2024-03-22T13:46:43;18.95;;;11.32;;
21326;SDS011;10822;51.532;6.770;2024-03-22T13:49:13;14.52;;;10.38;;
21326;SDS011;10822;51.532;6.770;2024-03-22T13:51:42;14.05;;;10.77;;
21326;SDS011;10822;51.532;6.770;2024-03-22T13:54:09;15.18;;;10.57;;
21326;SDS011;10822;51.532;6.770;2024-03-22T13:56:35;14.93;;;10.52;;
21326;SDS011;10822;51.532;6.770;2024-03-22T13:59:03;17.38;;;12.00;;
21326;SDS011;10822;51.532;6.770;2024-03-22T14:01:31;16.83;;;10.85;;
21326;SDS011;10822;51.532;6.770;2024-03-22T14:03:57;15.27;;;11.40;;
21326;SDS011;10822;51.532;6.770;2024-03-22T14:06:23;15.88;;;11.70;;
21326;SDS011;10822;51.532;6.770;2024-03-22T14:08:49;15.63;;;12.13;;
21326;SDS011;10822;51.532;6.770;2024-03-22T14:14:29;20.25;;;13.43;;
21326;SDS011;10822;51.532;6.770;2024-03-22T14:16:55;19.27;;;13.68;;
21326;SDS011;10822;51.532;6.770;2024-03-22T14:19:21;19.65;;;13.13;;
21326;SDS011;10822;51.532;6.770;2024-03-22T14:21:47;18.45;;;13.38;;
21326;SDS011;10822;51.532;6.770;2024-03-22T14:24:13;20.20;;;15.05;;
21326;SDS011;10822;51.532;6.770;2024-03-22T14:29:31;22.58;;;16.02;;